Date,TemperatureHighF,TemperatureAvgF,TemperatureLowF,DewpointHighF,DewpointAvgF,DewpointLowF,HumidityHigh,HumidityAvg,HumidityLow,PressureMaxIn,PressureMinIn,WindSpeedMaxMPH,WindSpeedAvgMPH,GustSpeedMaxMPH,PrecipitationSumIn
2014-1-1,71.2,56.3,43.2,21.7,18.0,13.4,38,23,10,29.65,29.53,13,4,16,0.00
2014-1-2,73.8,53.8,28.7,33.6,23.4,15.5,48,31,13,29.65,1.22,608,3,608,0.71
2014-1-3,73.6,58.1,45.2,29.1,24.1,19.6,42,28,13,29.53,29.38,6,3,8,0.00
2014-1-4,72.3,58.0,49.2,35.6,32.0,26.5,56,38,18,29.50,29.38,6,3,9,0.00
2014-1-5,66.7,56.4,47.6,32.3,9.7,-3.0,49,19,6,29.68,29.50,26,11,33,0.00
2014-1-6,67.8,55.3,42.9,5.5,2.1,-1.3,19,11,6,29.80,29.62,19,10,23,0.00
2014-1-7,68.3,53.8,38.9,19.6,10.2,2.3,28,18,8,29.65,29.53,8,3,11,0.00
2014-1-8,70.6,55.3,43.0,22.2,17.3,10.7,36,23,10,29.59,29.50,6,3,8,0.00
2014-1-9,70.6,54.6,43.7,26.0,21.6,17.9,43,28,13,29.56,29.41,9,3,10,0.00
2014-1-10,72.1,56.4,41.0,27.5,23.6,20.6,47,30,14,29.62,29.50,8,3,12,0.00
2014-1-11,72.8,57.9,44.2,30.5,27.7,25.5,53,33,17,29.68,29.47,9,4,15,0.00
2014-1-12,54.4,49.8,46.8,30.9,29.6,27.7,52,45,35,29.47,29.41,7,3,8,0.00
2014-1-13,72.0,57.6,49.4,56.3,9.2,6.2,20,14,1,29.83,29.71,30,11,29,0.00
2014-1-14,74.4,61.7,47.1,19.7,15.9,12.3,32,17,9,29.83,29.71,21,10,26,0.00
2014-1-15,76.5,63.7,52.8,19.1,15.2,12.2,25,15,9,29.77,29.62,21,10,26,0.00
2014-1-16,77.0,62.2,47.2,19.0,12.9,7.7,29,15,7,29.65,29.53,19,7,29,0.00
2014-1-17,77.2,63.3,49.9,15.0,10.8,7.3,23,13,7,29.65,29.53,17,8,21,0.00
2014-1-18,77.5,60.9,45.5,16.7,12.5,9.7,27,15,7,29.65,29.50,10,4,13,0.00
2014-1-19,70.1,57.7,46.7,23.1,16.5,9.6,30,20,11,29.65,29.56,6,3,8,0.00
2014-1-20,75.8,59.2,43.5,20.9,17.5,14.6,38,21,10,29.68,29.56,11,4,14,0.00
2014-1-21,55.5,51.0,46.9,15.9,15.2,13.5,27,23,18,29.68,29.62,6,3,7,0.00
2014-1-31,68.8,62.1,54.1,37.6,34.5,31.5,44,35,28,29.35,29.29,19,10,24,0.00
2014-2-1,63.0,54.4,47.5,33.9,19.9,9.0,54,28,12,29.50,29.32,24,9,30,0.00
2014-2-2,63.1,51.5,35.2,16.3,12.1,9.0,35,21,12,29.59,29.44,9,4,13,0.00
2014-2-3,63.9,52.8,42.3,32.5,23.1,12.8,50,31,20,29.44,29.32,16,5,20,0.00
2014-2-4,64.1,54.2,42.5,34.8,32.0,29.5,65,44,28,29.56,29.41,13,4,18,0.00
2014-2-5,67.9,58.1,50.7,45.0,33.7,26.8,70,42,23,29.56,29.44,13,4,17,0.00
2014-2-6,68.4,56.7,47.4,38.5,32.1,27.4,53,40,24,29.53,29.38,13,6,18,0.00
2014-2-7,68.5,57.6,45.5,44.1,38.0,34.7,68,49,29,29.62,29.44,13,4,17,0.00
2014-2-8,72.8,59.8,45.6,45.0,36.6,26.0,78,46,17,29.71,29.56,11,4,18,0.00
2014-2-9,58.4,53.1,48.9,38.0,34.2,30.1,59,48,34,29.62,29.56,8,3,9,0.00
2014-2-10,211.8,60.9,51.5,35.1,28.0,24.6,41,29,14,201.25,29.35,22,4,29,0.00
2014-2-11,78.5,67.9,58.5,30.9,25.2,18.5,32,21,10,29.53,29.41,22,9,26,0.00
2014-2-12,82.3,67.4,54.4,23.0,18.1,14.9,26,16,8,29.62,29.47,14,7,20,0.00
2014-2-13,86.1,68.5,51.4,24.7,19.3,15.0,25,16,8,29.56,29.41,9,3,13,0.00
2014-2-14,89.6,64.4,51.7,26.2,21.2,14.5,32,20,6,29.53,4.44,34,3,13,0.00
2014-2-15,62.7,57.8,53.7,20.0,18.1,15.9,24,21,17,29.44,29.41,7,3,8,0.00
2014-2-16,82.3,68.5,54.2,33.4,27.0,23.8,32,21,12,29.50,29.38,9,3,11,0.00
2014-2-17,325.4,61.5,52.0,78.9,24.7,21.4,32,25,2,29.53,0.00,67,4,15,0.73
2014-2-18,83.8,70.3,52.3,32.3,27.2,20.8,41,21,10,29.47,29.35,10,3,12,0.00
2014-2-19,81.4,67.6,56.5,35.5,27.4,16.6,31,22,8,29.38,29.26,12,5,18,0.00
2014-2-20,78.4,66.3,52.1,31.4,12.3,3.5,41,14,6,29.59,29.35,18,9,23,0.00
2014-2-21,78.3,63.7,51.6,14.0,8.1,2.7,17,11,6,29.53,29.35,12,4,16,0.00
2014-2-22,77.3,63.5,47.1,19.4,13.6,9.2,23,14,9,29.41,29.32,8,3,10,0.00
2014-2-23,80.3,66.4,53.8,25.9,20.1,14.6,25,17,10,29.47,29.35,8,3,11,0.00
2014-2-24,80.2,66.6,50.9,28.3,24.6,19.2,34,21,10,29.50,29.35,12,4,15,0.00
2014-2-25,74.7,64.6,52.8,46.3,33.5,25.4,58,31,25,29.47,29.38,7,3,9,0.00
2014-2-26,78.4,65.3,51.6,45.6,40.4,34.2,63,42,21,29.50,29.35,14,5,16,0.00
2014-2-27,77.6,66.9,53.5,47.0,43.0,39.5,63,43,27,29.44,29.29,18,6,22,0.00
2014-2-28,81.1,68.2,60.7,55.2,45.6,38.5,65,45,24,29.35,29.15,23,8,30,0.00
2014-3-1,72.4,58.0,49.7,52.5,45.0,39.3,78,63,33,29.50,29.26,21,5,26,0.01
2014-3-2,70.6,58.1,49.4,44.9,40.2,32.2,78,53,26,29.62,29.41,12,3,16,0.00
2014-3-3,75.6,60.4,50.5,41.9,36.8,32.3,64,43,21,29.56,29.41,16,4,21,0.00
2014-3-4,79.1,62.4,53.3,37.8,35.6,31.3,52,38,18,29.44,29.32,15,4,19,0.00
2014-3-5,85.7,67.1,53.6,36.1,31.2,21.8,48,28,11,29.56,29.41,10,3,14,0.00
2014-3-6,85.9,68.6,58.6,44.8,37.4,25.9,54,34,11,29.50,29.29,16,6,18,0.00
2014-3-7,83.1,68.7,56.6,44.7,25.4,16.7,59,22,9,29.44,29.29,24,10,32,0.00
2014-3-8,81.3,70.2,62.4,20.8,17.2,12.9,18,13,8,29.62,29.41,28,11,33,0.00
2014-3-9,82.0,66.1,54.6,25.1,15.4,11.6,23,14,7,29.71,29.50,22,6,34,0.00
2014-3-10,84.4,65.5,51.3,41.3,26.6,11.6,46,27,8,29.56,29.38,14,4,18,0.00
2014-3-11,81.1,64.4,53.6,41.2,15.3,7.1,46,17,7,29.47,29.38,23,9,29,0.00
2014-3-12,82.4,67.9,48.8,25.3,16.6,8.3,23,14,8,29.53,29.26,20,6,25,0.00
2014-3-13,82.3,65.5,48.8,25.3,19.4,12.1,25,17,8,29.41,29.26,19,4,24,0.00
2014-3-14,83.1,65.7,53.0,24.4,17.4,13.6,25,16,8,29.50,29.32,22,6,27,0.00
2014-3-15,85.6,69.1,49.7,23.5,11.3,2.6,29,11,4,29.68,29.50,29,9,37,0.00
2014-3-16,86.1,67.8,58.0,17.9,10.2,1.5,16,11,3,29.77,29.44,14,5,19,0.00
2014-3-17,88.0,65.9,53.9,32.3,18.5,8.8,30,17,6,29.53,29.15,21,6,28,0.00
2014-3-18,62.3,57.6,52.5,0.9,-0.2,-2.7,11,9,6,29.44,29.41,8,4,10,0.00
2014-3-19,61.6,56.0,52.6,1.9,-1.5,-3.9,10,9,8,29.50,29.47,5,3,6,0.00
2014-3-20,62.3,58.7,55.1,12.1,9.5,8.0,16,13,12,29.35,29.32,6,4,6,0.00
2014-3-21,63.8,60.9,57.1,44.9,40.1,31.5,56,46,30,29.35,29.35,9,4,13,0.00
2014-3-22,66.4,62.9,59.1,43.2,38.3,33.3,53,40,29,29.47,29.35,6,3,8,0.00
2014-3-23,69.4,64.8,60.9,41.0,38.2,35.6,41,37,31,29.47,29.44,6,3,7,0.00
2014-3-24,71.0,64.3,60.1,34.5,29.7,27.2,32,27,24,29.38,29.32,7,4,8,0.00
2014-3-25,87.7,70.5,61.1,41.6,35.0,24.1,40,29,10,29.38,29.18,24,10,31,0.00
2014-3-26,75.9,62.5,55.6,41.2,37.0,29.9,52,39,18,29.38,29.23,28,11,38,0.00
2014-3-27,74.9,60.5,52.2,39.4,34.5,27.1,59,39,18,29.50,29.35,21,7,26,0.00
2014-3-28,80.5,63.9,50.4,37.0,31.5,22.5,54,31,12,29.62,29.47,12,4,18,0.00
2014-3-29,87.0,70.8,54.4,32.2,28.8,21.4,36,22,9,29.56,29.29,13,4,23,0.00
2014-3-30,82.9,67.2,55.0,40.1,30.3,13.4,50,28,8,29.41,29.29,23,6,34,0.00
2014-3-31,81.1,63.5,52.5,40.0,25.4,-1.6,50,26,5,29.44,29.32,18,6,24,0.00
2014-4-1,73.4,58.5,51.4,37.5,30.1,22.3,45,34,21,29.44,29.29,28,11,35,0.00
2014-4-2,68.3,55.7,47.1,34.6,29.9,16.7,55,39,14,29.47,29.35,28,9,35,0.00
2014-4-3,75.6,58.3,45.4,33.2,23.8,17.0,53,28,11,29.59,29.41,14,4,20,0.00
2014-4-4,78.2,62.7,49.3,28.0,22.6,9.7,35,22,8,29.47,29.26,16,5,21,0.00
2014-4-5,77.5,62.2,53.7,34.1,25.5,18.6,47,25,11,29.41,29.29,15,5,20,0.00
2014-4-6,83.4,67.7,50.8,27.2,18.6,14.5,34,16,7,29.50,29.38,25,7,33,0.00
2014-4-7,91.6,74.5,56.6,21.1,16.5,12.8,20,11,5,29.59,29.47,16,5,21,0.00
2014-4-8,97.3,84.9,66.5,21.0,16.5,9.8,12,8,4,29.59,29.44,10,4,15,0.00
2014-4-9,98.3,80.9,62.1,25.8,18.3,8.2,17,10,3,29.50,29.35,11,4,14,0.00
2014-4-10,96.8,77.8,63.3,32.3,15.6,7.0,17,10,3,29.44,29.29,15,5,19,0.00
2014-4-11,96.5,77.6,67.6,47.8,19.1,2.8,34,12,3,29.38,29.18,19,7,29,0.00
2014-4-12,87.8,70.8,59.3,31.4,23.7,5.5,29,19,6,29.26,29.15,26,7,32,0.00
2014-4-13,86.2,70.3,58.2,41.3,33.2,19.4,40,26,11,29.44,29.23,17,6,22,0.00
2014-4-14,85.9,68.9,56.9,41.1,8.9,1.7,40,11,3,29.56,29.35,23,6,29,0.00
2014-4-15,91.8,72.3,56.8,20.7,11.6,3.5,17,10,3,29.47,29.18,11,4,15,0.00
2014-4-16,92.1,73.0,63.1,28.3,22.2,11.8,21,15,6,29.26,29.15,16,5,20,0.00
2014-4-17,88.7,72.7,63.6,30.7,25.5,19.8,26,17,9,29.38,29.26,15,6,19,0.00